LFSO 200030Z AUTO 14006KT CAVOK 19/16 Q1021 LFSO 200000Z AUTO 13005KT CAVOK 19/16 Q1021 LFSO 192330Z AUTO 13005KT CAVOK 20/17 Q1021 LFSO 192300Z AUTO 07004KT CAVOK 20/17 Q1022 LFSO 192230Z AUTO 05004KT CAVOK 21/17 Q1022 LFSO 192200Z AUTO 04002KT CAVOK 21/17 Q1022 NOSIG LFSO 192130Z AUTO 06005KT CAVOK 21/17 Q1021 NOSIG LFSO 192100Z AUTO 04005KT CAVOK 22/17 Q1021 NOSIG LFSO 192030Z AUTO 36004KT CAVOK 22/17 Q1021 NOSIG LFSO 192000Z AUTO VRB02KT CAVOK 23/15 Q1021 NOSIG LFSO 191930Z AUTO 25004KT CAVOK 23/15 Q1021 BECMG 14010KT LFSO 191900Z AUTO 20006KT CAVOK 25/15 Q1021 BECMG 14010KT LFSO 191830Z AUTO 21005KT 9999 //////CB 26/15 Q1021 BECMG 14010KT NSC LFSO 191800Z AUTO 19007KT 9999 ///CB 26/15 Q1020 BECMG NSC LFSO 191730Z AUTO 20008KT 170V230 9999 ///TCU 27/15 Q1020 BECMG NSC LFSO 191700Z AUTO 20011KT 9999 NSC 27/16 Q1020 TEMPO 3000 -SHRA BKN070CB BECMG 14010KT LFSO 191630Z AUTO 20012KT CAVOK 27/15 Q1020 TEMPO 3000 -SHRA BKN070CB BECMG 14010KT LFSO 191600Z AUTO 21013KT 9999 //////TCU 28/14 Q1020 TEMPO 14015G25KT 3000 -SHRA BKN070CB LFSO 191530Z AUTO 19011KT 150V220 9999 FEW032/// SCT070/// BKN110/// //////CB 29/15 Q1020 TEMPO 14015G25KT 3000 -SHRA LFSO 191500Z AUTO 22010KT 9999 //////CB 30/15 Q1020 TEMPO 14015G25KT 2000 -TSGS LFSO 191430Z AUTO 20015KT 9999 //////CB 29/15 Q1020 TEMPO 14015G25KT 2000 -TSGS LFSO 191400Z AUTO 22011KT 190V320 9999 VCTS ///CB 28/15 Q1020 TEMPO 27020G40KT 2000 -TSGS LFSO 191330Z AUTO 19013KT 160V240 9999 TS //////CB 28/16 Q1020 TEMPO 27020G40KT 2000 -TSGS LFSO 191300Z AUTO 21010KT 160V230 9999 VCTS ///CB 29/16 Q1020 TEMPO 27020G40KT 2000 -TSGS LFSO 191230Z AUTO 20012KT CAVOK 29/16 Q1020 TEMPO 27020G40KT 2000 -TSGS BKN070CB LFSO 191200Z AUTO 21011KT CAVOK 29/16 Q1020 TEMPO 27020G40KT 2000 -TSGS BKN070CB LFSO 191130Z AUTO 21010KT 170V240 9999 FEW047 BKN180 BKN200 28/16 Q1020 TEMPO 27020G40KT 2000 -TSGS BKN070CB LFSO 191100Z AUTO 22010KT 190V250 CAVOK 28/17 Q1020 TEMPO 27020G40KT 2000 -TSRA BKN070CB LFSO 191030Z AUTO 20011KT 170V230 CAVOK 27/16 Q1020 TEMPO 27020G40KT 2000 -TSRA BKN070CB LFSO 191000Z AUTO 20012KT CAVOK 27/16 Q1020 TEMPO 27020G40KT 2000 -TSRA BKN070CB LFSO 190930Z AUTO 19010KT 150V220 CAVOK 26/16 Q1020 TEMPO 27020G40KT 2000 -TSRA BKN070CB LFSO 190900Z AUTO 19010KT 160V230 CAVOK 25/15 Q1020 NOSIG LFSO 190830Z AUTO 19010KT 160V220 CAVOK 24/15 Q1020 NOSIG LFSO 190800Z AUTO 19009KT 160V220 9999 //////CB 24/15 Q1020 TEMPO NSC LFSO 190730Z AUTO 19013KT 9999 VCTS ///CB 22/13 Q1020 TEMPO NSC BECMG NSW LFSO 190700Z AUTO 19010KT 9999 //////CB 22/13 Q1020 BECMG NSC LFSO 190630Z AUTO 15007KT 9999 //////TCU 20/14 Q1020 BECMG NSC LFSO 190600Z AUTO 13004KT 080V190 CAVOK 19/13 Q1020 NOSIG LFSO 190530Z AUTO 15005KT CAVOK 18/13 Q1019 LFSO 190500Z AUTO 15006KT CAVOK 17/12 Q1019 LFSO 190430Z AUTO 15006KT CAVOK 16/12 Q1019 LFSO 190400Z AUTO VRB03KT CAVOK 16/12 Q1019 LFSO 190330Z AUTO 11003KT CAVOK 16/12 Q1019 LFSO 190300Z AUTO 16004KT CAVOK 16/13 Q1019 LFSO 190230Z AUTO 16005KT CAVOK 16/13 Q1019 LFSO 190200Z AUTO 15005KT CAVOK 16/12 Q1019 LFSO 190130Z AUTO 13005KT CAVOK 17/12 Q1019 LFSO 190100Z AUTO 12006KT CAVOK 17/12 Q1019 LFSO 190030Z AUTO 11006KT CAVOK 18/12 Q1019 LFSO 190000Z AUTO 11006KT CAVOK 18/12 Q1019 LFSO 182330Z AUTO 12005KT CAVOK 18/12 Q1019 LFSO 182300Z AUTO 14005KT CAVOK 19/12 Q1019 LFSO 182230Z AUTO 14003KT 110V170 CAVOK 20/12 Q1019 LFSO 182200Z AUTO VRB03KT CAVOK 20/12 Q1019 LFSO 182130Z AUTO 09005KT 070V130 CAVOK 21/12 Q1020 LFSO 182100Z AUTO 08006KT CAVOK 22/12 Q1020 LFSO 182030Z AUTO 07005KT CAVOK 22/12 Q1020 LFSO 182000Z AUTO 06005KT CAVOK 22/12 Q1020 LFSO 181930Z AUTO 07004KT CAVOK 24/13 Q1019 LFSO 181900Z AUTO 08006KT CAVOK 24/14 Q1019 LFSO 181830Z AUTO 08004KT CAVOK 25/14 Q1019 LFSO 181800Z AUTO 04003KT CAVOK 27/13 Q1020 LFSO 181730Z AUTO 04005KT CAVOK 28/11 Q1020 LFSO 181700Z AUTO 04004KT 360V060 CAVOK 28/11 Q1020 LFSO 181630Z AUTO 08004KT 040V160 CAVOK 28/10 Q1020 LFSO 181600Z AUTO 06004KT 020V110 CAVOK 29/09 Q1020 LFSO 181530Z AUTO 06004KT 350V150 CAVOK 28/09 Q1020 NOSIG LFSO 181500Z AUTO VRB05KT CAVOK 29/10 Q1020 NOSIG LFSO 181430Z AUTO VRB04KT CAVOK 28/11 Q1020 NOSIG LFSO 181400Z AUTO 09005KT 360V150 CAVOK 28/11 Q1021 TEMPO 4900 -SHRA SCT060TCU LFSO 181330Z AUTO 02005KT 320V100 CAVOK 28/11 Q1021 TEMPO 4900 -SHRA SCT060TCU

METAR Messwerte "NANCY/OCHEY (FAF" LFSO

Zurück zur Übersicht

Ortsname
Ländercode / m ü. NN
Zeit Temperatur Taupunkt Rel.
Luftfeuchte
Luftdruck:
Altimeter
NN
Station
Wind in Beaufort
(Knoten)
Sichtweite
(Meter)
Wolken
(Meter über Grund)
Wettererscheinung
NANCY/OCHEY (FAF
FR 328
Fr 20.05. 02:30191683 %1021
1021
982
SO 2 (6)>= 10000Nicht signifikant 
NANCY/OCHEY (FAF
FR 328
Fr 20.05. 02:00191683 %1021
1021
982
SO 2 (5)>= 10000Nicht signifikant 
NANCY/OCHEY (FAF
FR 328
Fr 20.05. 01:30201783 %1021
1020
982
SO 2 (5)>= 10000Nicht signifikant 
NANCY/OCHEY (FAF
FR 328
Fr 20.05. 01:00201783 %1022
1021
983
ONO 2 (4)>= 10000Nicht signifikant 
NANCY/OCHEY (FAF
FR 328
Fr 20.05. 00:30211778 %1022
1021
983
NO 2 (4)>= 10000Nicht signifikant 
NANCY/OCHEY (FAF
FR 328
Fr 20.05. 00:00211778 %1022
1021
983
NO 1 (2)>= 10000Nicht signifikant 
NANCY/OCHEY (FAF
FR 328
Do 19.05. 23:30211778 %1021
1020
982
ONO 2 (5)>= 10000Nicht signifikant 
NANCY/OCHEY (FAF
FR 328
Do 19.05. 23:00221773 %1021
1020
982
NO 2 (5)>= 10000Nicht signifikant 
NANCY/OCHEY (FAF
FR 328
Do 19.05. 22:30221773 %1021
1020
982
N 2 (4)>= 10000Nicht signifikant 
NANCY/OCHEY (FAF
FR 328
Do 19.05. 22:00231561 %1021
1020
982
Uml 1 (2)>= 10000Nicht signifikant 
NANCY/OCHEY (FAF
FR 328
Do 19.05. 21:30231561 %1021
1020
982
WSW 2 (4)
Bald Übergang zu:
SO 3 (10)
>= 10000Nicht signifikant 
NANCY/OCHEY (FAF
FR 328
Do 19.05. 21:00251554 %1021
1020
982
SSW 2 (6)
Bald Übergang zu:
SO 3 (10)
>= 10000Nicht signifikant 
NANCY/OCHEY (FAF
FR 328
Do 19.05. 20:30261551 %1021
1020
982
SSW 2 (5)
Bald Übergang zu:
SO 3 (10)
>= 10000  
NANCY/OCHEY (FAF
FR 328
Do 19.05. 20:00261551 %1020
1019
981
S 3 (7)>= 10000  
NANCY/OCHEY (FAF
FR 328
Do 19.05. 19:30271548 %1020
1018
981
SSW 3 (8)
S - SW
>= 10000  
NANCY/OCHEY (FAF
FR 328
Do 19.05. 19:00271651 %1020
1018
981
SSW 4 (11)>= 10000
Bald zeitweise: 3000
Nicht signifikant Bald zeitweise: Regen-Schauer (schwach)
NANCY/OCHEY (FAF
FR 328
Do 19.05. 18:30271548 %1020
1018
981
SSW 4 (12)>= 10000
Bald zeitweise: 3000
Nicht signifikant Bald zeitweise: Regen-Schauer (schwach)
NANCY/OCHEY (FAF
FR 328
Do 19.05. 18:00281442 %1020
1018
981
SSW 4 (13)
Bald zeitweise:
SO 4 (15) - 6 (25)
>= 10000
Bald zeitweise: 3000
  Bald zeitweise: Regen-Schauer (schwach)
NANCY/OCHEY (FAF
FR 328
Do 19.05. 17:30291543 %1020
1018
981
S 4 (11)
SSO - SW
Bald zeitweise:
SO 4 (15) - 6 (25)
>= 10000
Bald zeitweise: 3000
Stark bewölkt (3400)
Wolkig (2100)
Leicht bewölkt (980)
 Bald zeitweise: Regen-Schauer (schwach)
NANCY/OCHEY (FAF
FR 328
Do 19.05. 17:00301540 %1020
1018
981
SW 3 (10)
Bald zeitweise:
SO 4 (15) - 6 (25)
>= 10000
Bald zeitweise: 2000
  Bald zeitweise: Gewitter mit Graupel (schwach)
NANCY/OCHEY (FAF
FR 328
Do 19.05. 16:30291543 %1020
1018
981
SSW 4 (15)
Bald zeitweise:
SO 4 (15) - 6 (25)
>= 10000
Bald zeitweise: 2000
  Bald zeitweise: Gewitter mit Graupel (schwach)
NANCY/OCHEY (FAF
FR 328
Do 19.05. 16:00281545 %1020
1018
981
SW 4 (11)
S - NW
Bald zeitweise:
W 5 (20) - 8 (40)
>= 10000
Bald zeitweise: 2000
  Bald zeitweise: Gewitter mit Graupel (schwach)
NANCY/OCHEY (FAF
FR 328
Do 19.05. 15:30281648 %1020
1018
981
S 4 (13)
SSO - WSW
Bald zeitweise:
W 5 (20) - 8 (40)
>= 10000
Bald zeitweise: 2000
  Bald zeitweise: Gewitter mit Graupel (schwach)
NANCY/OCHEY (FAF
FR 328
Do 19.05. 15:00291645 %1020
1018
981
SSW 3 (10)
SSO - SW
Bald zeitweise:
W 5 (20) - 8 (40)
>= 10000
Bald zeitweise: 2000
  Bald zeitweise: Gewitter mit Graupel (schwach)
NANCY/OCHEY (FAF
FR 328
Do 19.05. 14:30291645 %1020
1018
981
SSW 4 (12)
Bald zeitweise:
W 5 (20) - 8 (40)
>= 10000
Bald zeitweise: 2000
Nicht signifikant Bald zeitweise: Gewitter mit Graupel (schwach)
NANCY/OCHEY (FAF
FR 328
Do 19.05. 14:00291645 %1020
1018
981
SSW 4 (11)
Bald zeitweise:
W 5 (20) - 8 (40)
>= 10000
Bald zeitweise: 2000
Nicht signifikant Bald zeitweise: Gewitter mit Graupel (schwach)
NANCY/OCHEY (FAF
FR 328
Do 19.05. 13:30281648 %1020
1018
981
SSW 3 (10)
S - WSW
Bald zeitweise:
W 5 (20) - 8 (40)
>= 10000
Bald zeitweise: 2000
Stark bewölkt (6100)
Stark bewölkt (5500)
Leicht bewölkt (1400)
 Bald zeitweise: Gewitter mit Graupel (schwach)
NANCY/OCHEY (FAF
FR 328
Do 19.05. 13:00281751 %1020
1018
981
SW 3 (10)
S - WSW
Bald zeitweise:
W 5 (20) - 8 (40)
>= 10000
Bald zeitweise: 2000
Nicht signifikant Bald zeitweise: Gewitter mit Regen (schwach)
NANCY/OCHEY (FAF
FR 328
Do 19.05. 12:30271651 %1020
1018
981
SSW 4 (11)
S - SW
Bald zeitweise:
W 5 (20) - 8 (40)
>= 10000
Bald zeitweise: 2000
Nicht signifikant Bald zeitweise: Gewitter mit Regen (schwach)
NANCY/OCHEY (FAF
FR 328
Do 19.05. 12:00271651 %1020
1018
981
SSW 4 (12)
Bald zeitweise:
W 5 (20) - 8 (40)
>= 10000
Bald zeitweise: 2000
Nicht signifikant Bald zeitweise: Gewitter mit Regen (schwach)
NANCY/OCHEY (FAF
FR 328
Do 19.05. 11:30261654 %1020
1019
981
S 3 (10)
SSO - SW
Bald zeitweise:
W 5 (20) - 8 (40)
>= 10000
Bald zeitweise: 2000
Nicht signifikant Bald zeitweise: Gewitter mit Regen (schwach)
NANCY/OCHEY (FAF
FR 328
Do 19.05. 11:00251554 %1020
1019
981
S 3 (10)
SSO - SW
>= 10000Nicht signifikant 
NANCY/OCHEY (FAF
FR 328
Do 19.05. 10:30241557 %1020
1019
981
S 3 (10)
SSO - SW
>= 10000Nicht signifikant 
NANCY/OCHEY (FAF
FR 328
Do 19.05. 10:00241557 %1020
1019
981
S 3 (9)
SSO - SW
>= 10000  
NANCY/OCHEY (FAF
FR 328
Do 19.05. 09:30221357 %1020
1019
981
S 4 (13)>= 10000  
NANCY/OCHEY (FAF
FR 328
Do 19.05. 09:00221357 %1020
1019
981
S 3 (10)>= 10000  
NANCY/OCHEY (FAF
FR 328
Do 19.05. 08:30201468 %1020
1019
981
SSO 3 (7)>= 10000  
NANCY/OCHEY (FAF
FR 328
Do 19.05. 08:00191368 %1020
1020
981
SO 2 (4)
O - S
>= 10000Nicht signifikant 
NANCY/OCHEY (FAF
FR 328
Do 19.05. 07:30181373 %1019
1019
980
SSO 2 (5)>= 10000Nicht signifikant 
NANCY/OCHEY (FAF
FR 328
Do 19.05. 07:00171272 %1019
1019
980
SSO 2 (6)>= 10000Nicht signifikant 
NANCY/OCHEY (FAF
FR 328
Do 19.05. 06:30161277 %1019
1019
980
SSO 2 (6)>= 10000Nicht signifikant 
NANCY/OCHEY (FAF
FR 328
Do 19.05. 06:00161277 %1019
1019
980
Uml 2 (3)>= 10000Nicht signifikant 
NANCY/OCHEY (FAF
FR 328
Do 19.05. 05:30161277 %1019
1019
980
OSO 2 (3)>= 10000Nicht signifikant 
NANCY/OCHEY (FAF
FR 328
Do 19.05. 05:00161382 %1019
1019
980
SSO 2 (4)>= 10000Nicht signifikant 
NANCY/OCHEY (FAF
FR 328
Do 19.05. 04:30161382 %1019
1019
980
SSO 2 (5)>= 10000Nicht signifikant 
NANCY/OCHEY (FAF
FR 328
Do 19.05. 04:00161277 %1019
1019
980
SSO 2 (5)>= 10000Nicht signifikant 
NANCY/OCHEY (FAF
FR 328
Do 19.05. 03:30171272 %1019
1019
980
SO 2 (5)>= 10000Nicht signifikant 
NANCY/OCHEY (FAF
FR 328
Do 19.05. 03:00171272 %1019
1019
980
OSO 2 (6)>= 10000Nicht signifikant 
NANCY/OCHEY (FAF
FR 328
Do 19.05. 02:30181268 %1019
1019
980
OSO 2 (6)>= 10000Nicht signifikant 
NANCY/OCHEY (FAF
FR 328
Do 19.05. 02:00181268 %1019
1019
980
OSO 2 (6)>= 10000Nicht signifikant 
NANCY/OCHEY (FAF
FR 328
Do 19.05. 01:30181268 %1019
1019
980
OSO 2 (5)>= 10000Nicht signifikant 
NANCY/OCHEY (FAF
FR 328
Do 19.05. 01:00191264 %1019
1019
980
SO 2 (5)>= 10000Nicht signifikant 
NANCY/OCHEY (FAF
FR 328
Do 19.05. 00:30201260 %1019
1018
980
SO 2 (3)
OSO - S
>= 10000Nicht signifikant 
NANCY/OCHEY (FAF
FR 328
Do 19.05. 00:00201260 %1019
1018
980
Uml 2 (3)>= 10000Nicht signifikant 
NANCY/OCHEY (FAF
FR 328
Mi 18.05. 23:30211256 %1020
1019
981
O 2 (5)
ONO - SO
>= 10000Nicht signifikant 
NANCY/OCHEY (FAF
FR 328
Mi 18.05. 23:00221253 %1020
1019
981
O 2 (6)>= 10000Nicht signifikant 
NANCY/OCHEY (FAF
FR 328
Mi 18.05. 22:30221253 %1020
1019
981
ONO 2 (5)>= 10000Nicht signifikant 
NANCY/OCHEY (FAF
FR 328
Mi 18.05. 22:00221253 %1020
1019
981
ONO 2 (5)>= 10000Nicht signifikant 
NANCY/OCHEY (FAF
FR 328
Mi 18.05. 21:30241350 %1019
1018
980
ONO 2 (4)>= 10000Nicht signifikant 
NANCY/OCHEY (FAF
FR 328
Mi 18.05. 21:00241454 %1019
1018
980
O 2 (6)>= 10000Nicht signifikant 
NANCY/OCHEY (FAF
FR 328
Mi 18.05. 20:30251450 %1019
1018
980
O 2 (4)>= 10000Nicht signifikant 
NANCY/OCHEY (FAF
FR 328
Mi 18.05. 20:00271342 %1020
1018
981
NO 2 (3)>= 10000Nicht signifikant 
NANCY/OCHEY (FAF
FR 328
Mi 18.05. 19:30281135 %1020
1018
981
NO 2 (5)>= 10000Nicht signifikant 
NANCY/OCHEY (FAF
FR 328
Mi 18.05. 19:00281135 %1020
1018
981
NO 2 (4)
N - ONO
>= 10000Nicht signifikant 
NANCY/OCHEY (FAF
FR 328
Mi 18.05. 18:30281032 %1020
1018
981
O 2 (4)
NO - SSO
>= 10000Nicht signifikant 
NANCY/OCHEY (FAF
FR 328
Mi 18.05. 18:0029929 %1020
1018
981
ONO 2 (4)
NNO - OSO
>= 10000Nicht signifikant 
NANCY/OCHEY (FAF
FR 328
Mi 18.05. 17:3028930 %1020
1018
981
ONO 2 (4)
N - SSO
>= 10000Nicht signifikant 
NANCY/OCHEY (FAF
FR 328
Mi 18.05. 17:00291031 %1020
1018
981
Uml 2 (5)>= 10000Nicht signifikant 
NANCY/OCHEY (FAF
FR 328
Mi 18.05. 16:30281135 %1020
1018
981
Uml 2 (4)>= 10000Nicht signifikant 
NANCY/OCHEY (FAF
FR 328
Mi 18.05. 16:00281135 %1021
1019
982
O 2 (5)
N - SSO
>= 10000
Bald zeitweise: 4900
Nicht signifikant Bald zeitweise: Regen-Schauer (schwach)
NANCY/OCHEY (FAF
FR 328
Mi 18.05. 15:30281135 %1021
1019
982
NNO 2 (5)
NW - O
>= 10000
Bald zeitweise: 4900
Nicht signifikant Bald zeitweise: Regen-Schauer (schwach)

Altimeter: Einstellung am Altimeter (Höhenmesser), die Höhe 0 muss auf diesen Luftdruckwert zeigen, damit das Gerät die Stationshöhe richtig anzeigt.

NN: Luftdruck reduziert auf "Normal Null", auf Meereshöhe, dieser von der Temperatur abhängige Wert wird bisweilen unkorrekt einfach als "Luftdruck" bezeichnet. Eigentlich nur eine fiktive Größe, die es erlaubt, Stationen auf unterschiedlichen Höhen miteinander zu vergleichen.

Station: Realer Luftdruck an der Station.